Hawley, Texas
Current Conditions -  °F | °C
As of 1:23 AM on Thursday 18 Dec 2014 (Local Time) from KDYS Reporting Station
Scattered Clouds Scattered Clouds  
Wind Chill: 45°   Ceiling: Unl
Heat Index: 48°   Visibility: 10mi
Dew Point: 43°   Wind: 8mph
Humidity: 82%   Direction: 170°S
Pressure: 30.04"   Gusts: NA
Location:  32.61°N, 99.81°W
Report Text: KDYS 180723Z AUTO 17007KT 10SM SCT007 09/06 A3004 RMK AO2
Loading
Personal Weather Stations






























Interactive Weather Map New forecast layout! Learn more

10-Day Weather Forecast

Advertisements
Track Severe Weather on mobile